Stations météo

réclame
Mon MeteoGroup
Karlsruhe/Baden-Baden, Allemagne (10722): Température de l'air & dewpoint: 14.10.2018 04:00:00 - 20.10.2018 04:00:00 (CEST)Karlsruhe/Baden-Baden, Allemagne (10722): Vitesse du vent: 14.10.2018 04:00:00 - 20.10.2018 04:00:00 (CEST)Karlsruhe/Baden-Baden, Allemagne (10722): Direction du vent: 14.10.2018 04:00:00 - 20.10.2018 04:00:00 (CEST)Karlsruhe/Baden-Baden, Allemagne (10722): visibility: 14.10.2018 04:00:00 - 20.10.2018 04:00:00 (CEST)
Date & Time tt [°C] td [°C] ff [km/h] ff [knt] dd vv [km]
20.10.2018 04:00:00 7,0 7,0 0 0 N 0,5
20.10.2018 03:00:00 8,0 8,0 4 2 NE 2,6
20.10.2018 02:00:00 9,0 8,0 0 0 N 3,4
20.10.2018 01:00:00 11,0 10,0 8 4 NE 4,7
20.10.2018 00:00:00 12,0 10,0 11 6 N 6
19.10.2018 23:00:00 13,0 11,0 13 7 N 7
19.10.2018 22:00:00 12,0 10,0 13 7 NE 7
19.10.2018 21:00:00 13,0 10,0 15 8 NNE 8
19.10.2018 20:00:00 14,0 10,0 13 7 NNE 9
19.10.2018 19:00:00 16,0 10,0 13 7 NNE 9
19.10.2018 18:00:00 18,0 11,0 15 8 NNE 9
19.10.2018 17:00:00 19,0 10,0 18 10 NNE 9
19.10.2018 16:00:00 19,0 11,0 16 9 NNE 9
19.10.2018 15:00:00 18,0 11,0 18 10 NNE 6
19.10.2018 14:00:00 17,0 10,0 16 9 NNE 5
19.10.2018 13:00:00 16,0 11,0 13 7 N 5
19.10.2018 12:00:00 15,0 11,0 11 6 NNE 5
19.10.2018 11:00:00 13,0 11,0 16 9 NE 3,0
19.10.2018 10:00:00 11,0 10,0 18 10 NNE 2,5
19.10.2018 09:00:00 10,0 9,0 16 9 NNE 2,0
19.10.2018 08:00:00 10,0 9,0 18 10 NNE 2,2
19.10.2018 07:00:00 10,0 9,0 16 9 NNE 5
19.10.2018 06:00:00 10,0 9,0 16 9 NNE 6
19.10.2018 05:00:00 11,0 10,0 18 10 NNE 6
19.10.2018 04:00:00 11,0 10,0 18 10 NNE 5
19.10.2018 03:00:00 11,0 10,0 16 9 NNE 6
19.10.2018 02:00:00 13,0 11,0 16 9 NNE 7
19.10.2018 01:00:00 13,0 11,0 21 11 NNE 8
19.10.2018 00:00:00 14,0 11,0 21 11 NNE 9
18.10.2018 23:00:00 14,0 11,0 16 9 NNE 10
18.10.2018 22:00:00 15,0 12,0 21 11 NNE 10
18.10.2018 21:00:00 16,0 12,0 21 11 NNE 10
18.10.2018 20:00:00 17,0 12,0 21 11 NNE 10
18.10.2018 19:00:00 18,0 12,0 13 7 NNE 10
18.10.2018 18:00:00 20,0 12,0 18 10 NNE 10
18.10.2018 17:00:00 21,0 12,0 18 10 NNE 10
18.10.2018 16:00:00 21,0 11,0 24 13 NNE 10
18.10.2018 15:00:00 21,0 12,0 21 11 N 10
18.10.2018 14:00:00 20,0 12,0 18 10 N 10
18.10.2018 13:00:00 19,0 11,0 22 12 NNE 10
18.10.2018 12:00:00 17,0 11,0 21 11 N 10
18.10.2018 11:00:00 15,0 11,0 16 9 NNE 10
18.10.2018 10:00:00 12,0 11,0 18 10 NNE 10
18.10.2018 09:00:00 10,0 9,0 11 6 NNE 10
18.10.2018 08:00:00 10,0 9,0 8 4 NNE 10
18.10.2018 07:00:00 10,0 9,0 11 6 NNE 10
18.10.2018 06:00:00 10,0 9,0 15 8 NNE 10
18.10.2018 05:00:00 11,0 9,0 15 8 NNE 10
18.10.2018 04:00:00 11,0 10,0 13 7 NNE 10
18.10.2018 03:00:00 10,0 10,0 5 3 NE 10
18.10.2018 02:00:00 10,0 10,0 9 5 NNE 8
18.10.2018 01:00:00 12,0 11,0 5 3 N 10
18.10.2018 00:00:00 11,0 11,0 5 3 NNW 9
17.10.2018 23:00:00 12,0 11,0 8 4 NNE 10
17.10.2018 22:00:00 15,0 11,0 9 5 N 10
17.10.2018 21:00:00 14,0 10,0 11 6 NE 10
17.10.2018 20:00:00 16,0 11,0 15 8 NE 10
17.10.2018 19:00:00 18,0 11,0 8 4 N 10
17.10.2018 18:00:00 21,0 11,0 15 8 N 10
17.10.2018 17:00:00 22,0 11,0 15 8 N 10
17.10.2018 16:00:00 21,0 11,0 11 6 N 10
17.10.2018 15:00:00 20,0 10,0 8 4 N 10
17.10.2018 14:00:00 19,0 10,0 8 4 NNW 10
17.10.2018 13:00:00 17,0 10,0 9 5 N 9
17.10.2018 12:00:00 15,0 10,0 4 2 - 9
17.10.2018 11:00:00 14,0 11,0 2 1 - 9
17.10.2018 10:00:00 9,0 9,0 2 1 N 9
17.10.2018 09:00:00 6,0 6,0 0 0 N 10
17.10.2018 08:00:00 5,0 5,0 4 2 - 10
17.10.2018 07:00:00 4,0 4,0 2 1 SSE 9
17.10.2018 06:00:00 5,0 5,0 4 2 S 4,0
17.10.2018 05:00:00 5,0 5,0 0 0 N 0,5
17.10.2018 04:00:00 6,0 6,0 4 2 NE 9
17.10.2018 03:00:00 6,0 6,0 0 0 N 2,0
17.10.2018 02:00:00 7,0 7,0 5 3 S 10
17.10.2018 01:00:00 8,0 7,0 4 2 SE 10
17.10.2018 00:00:00 8,0 8,0 0 0 N 9
16.10.2018 23:00:00 9,0 8,0 5 3 SSW 10
16.10.2018 22:00:00 11,0 10,0 0 0 N 10
16.10.2018 21:00:00 11,0 10,0 0 0 N 10
16.10.2018 20:00:00 12,0 10,0 0 0 N 10
16.10.2018 19:00:00 17,0 11,0 2 1 SE 10
16.10.2018 18:00:00 20,0 10,0 4 2 - 10
16.10.2018 17:00:00 22,0 10,0 8 4 N 10
16.10.2018 16:00:00 22,0 10,0 8 4 N 10
16.10.2018 15:00:00 21,0 10,0 9 5 N 10
16.10.2018 14:00:00 20,0 10,0 9 5 N 10
16.10.2018 13:00:00 18,0 10,0 11 6 N 10
16.10.2018 12:00:00 15,0 10,0 5 3 NNW 10
16.10.2018 11:00:00 15,0 9,0 2 1 - 10
16.10.2018 10:00:00 11,0 9,0 0 0 N 10
16.10.2018 09:00:00 6,0 6,0 2 1 ESE 10
16.10.2018 08:00:00 4,0 4,0 2 1 - 10
16.10.2018 07:00:00 5,0 5,0 2 1 SW 10
16.10.2018 06:00:00 5,0 5,0 2 1 E 10
16.10.2018 05:00:00 6,0 6,0 4 2 S 10
16.10.2018 04:00:00 6,0 6,0 0 0 N 4,6
16.10.2018 03:00:00 7,0 7,0 2 1 - 1,1
16.10.2018 02:00:00 8,0 8,0 0 0 N 10
16.10.2018 01:00:00 10,0 8,0 2 1 SE 10
16.10.2018 00:00:00 11,0 10,0 4 2 - 10
15.10.2018 23:00:00 13,0 10,0 13 7 NNE 10
15.10.2018 22:00:00 14,0 10,0 11 6 NE 10
15.10.2018 21:00:00 15,0 10,0 11 6 NE 10
15.10.2018 20:00:00 15,0 11,0 9 5 NNE 10
15.10.2018 19:00:00 18,0 11,0 8 4 N 10
15.10.2018 18:00:00 21,0 10,0 9 5 N 10
15.10.2018 17:00:00 23,0 10,0 13 7 N 10
15.10.2018 16:00:00 23,0 10,0 16 9 N 10
15.10.2018 15:00:00 22,0 9,0 15 8 N 10
15.10.2018 14:00:00 21,0 10,0 8 4 N 10
15.10.2018 13:00:00 20,0 10,0 8 4 N 10
15.10.2018 12:00:00 18,0 10,0 4 2 - 10
15.10.2018 11:00:00 15,0 10,0 4 2 - 10
15.10.2018 10:00:00 12,0 9,0 4 2 - 10
15.10.2018 09:00:00 7,0 7,0 2 1 - 10
15.10.2018 08:00:00 7,0 7,0 4 2 SSE 9
15.10.2018 07:00:00 6,0 6,0 4 2 SSW 9
15.10.2018 06:00:00 7,0 7,0 2 1 - 10
15.10.2018 05:00:00 8,0 7,0 2 1 E 10
15.10.2018 04:00:00 - - - - - -
15.10.2018 03:00:00 9,0 8,0 4 2 - 10
15.10.2018 02:00:00 11,0 11,0 9 5 SSW 10
15.10.2018 01:00:00 11,0 10,0 4 2 SSW 10
15.10.2018 00:00:00 10,0 10,0 8 4 S 8
14.10.2018 23:00:00 11,0 11,0 0 0 N 9
14.10.2018 22:00:00 12,0 11,0 2 1 - 10
14.10.2018 21:00:00 13,0 11,0 2 1 NE 10
14.10.2018 20:00:00 15,0 12,0 0 0 N 10
14.10.2018 19:00:00 19,0 12,0 4 2 - 10
14.10.2018 18:00:00 25,0 11,0 0 0 N 10
14.10.2018 17:00:00 25,0 11,0 5 3 NNE 10
14.10.2018 16:00:00 25,0 12,0 4 2 - 10
14.10.2018 15:00:00 23,0 13,0 8 4 W 10
14.10.2018 14:00:00 22,0 13,0 4 2 - 10
14.10.2018 13:00:00 20,0 13,0 4 2 - 10
14.10.2018 12:00:00 18,0 13,0 4 2 - 10
14.10.2018 11:00:00 15,0 12,0 5 3 - 10
14.10.2018 10:00:00 12,0 12,0 4 2 - 10
14.10.2018 09:00:00 8,0 8,0 0 0 N 10
14.10.2018 08:00:00 7,0 7,0 4 2 - 10
14.10.2018 07:00:00 9,0 9,0 4 2 - 8
14.10.2018 06:00:00 9,0 9,0 2 1 - 9
14.10.2018 05:00:00 9,0 9,0 2 1 SSE 9
14.10.2018 04:00:00 10,0 9,0 0 0 N 1,3

tt = Température de l'air
td = dewpoint
ff = Vitesse du vent
dd = Direction du vent
vv = visibility

stations d'obs. à proximité